Time;durP1;ratioP1;P1;durP2;ratioP2;P2;SDS_P1;SDS_P2;PMS_P1;PMS_P2;Temp;Humidity;BMP_temperature;BMP_pressure;BME280_temperature;BME280_humidity;BME280_pressure;Samples;Min_cycle;Max_cycle;Signal;HPM_P1;HPM_P2
2022/06/11 00:01:48;;;;;;;2.67;2.30;;;;;;;14.35;90.85;97216.00;5054877;28;20287;-49
2022/06/11 00:04:19;;;;;;;2.67;2.47;;;;;;;14.36;89.00;97213.19;5042948;28;20215;-48
2022/06/11 00:06:49;;;;;;;3.33;2.40;;;;;;;14.32;90.01;97218.94;5055671;28;20275;-47
2022/06/11 00:09:20;;;;;;;2.73;2.47;;;;;;;14.24;91.39;97222.34;5055612;28;20261;-48
2022/06/11 00:11:47;;;;;;;3.37;2.40;;;;;;;14.32;89.56;97213.63;5055619;28;20203;-49
2022/06/11 00:14:14;;;;;;;3.53;2.27;;;;;;;14.35;88.00;97213.34;5055364;28;20297;-49
2022/06/11 00:16:43;;;;;;;2.70;2.50;;;;;;;14.26;87.96;97209.75;5055141;28;20707;-48
2022/06/11 00:19:10;;;;;;;3.63;2.70;;;;;;;14.14;90.72;97213.63;5055062;28;20305;-49
2022/06/11 00:21:41;;;;;;;2.33;2.23;;;;;;;14.16;90.29;97213.47;5055058;28;20199;-48
2022/06/11 00:24:08;;;;;;;2.40;2.20;;;;;;;14.16;91.43;97224.13;5055353;28;20227;-49
2022/06/11 00:26:36;;;;;;;4.03;2.63;;;;;;;14.16;91.91;97227.63;5055346;28;20213;-49
2022/06/11 00:29:04;;;;;;;2.60;2.37;;;;;;;14.08;92.75;97224.03;5066737;28;20269;-49
2022/06/11 00:31:31;;;;;;;2.80;2.60;;;;;;;14.02;92.74;97224.63;5074934;28;20641;-49
2022/06/11 00:33:58;;;;;;;3.50;2.40;;;;;;;13.95;93.28;97224.41;5062832;28;20303;-49
2022/06/11 00:36:24;;;;;;;2.97;2.27;;;;;;;13.95;93.33;97224.41;5048884;28;20260;-48
2022/06/11 00:38:54;;;;;;;2.13;2.00;;;;;;;13.90;93.60;97224.84;5042932;28;20648;-48
2022/06/11 00:41:25;;;;;;;2.37;2.20;;;;;;;13.85;92.38;97224.44;5054388;28;20294;-49
2022/06/11 00:43:54;;;;;;;3.20;2.30;;;;;;;13.83;94.08;97223.75;5054910;28;20317;-48
2022/06/11 00:46:54;;;;;;;2.53;2.20;;;;;;;13.80;94.53;97220.56;5040878;28;20225;-48
2022/06/11 00:49:28;;;;;;;2.43;2.10;;;;;;;13.81;94.85;97216.94;4993625;28;20348;-47
2022/06/11 00:52:02;;;;;;;3.07;2.10;;;;;;;13.84;94.18;97216.63;5044233;28;20207;-48
2022/06/11 00:54:33;;;;;;;4.37;2.43;;;;;;;13.77;94.24;97211.06;5054863;28;20589;-48
2022/06/11 00:57:04;;;;;;;2.70;2.50;;;;;;;13.77;94.70;97211.06;5054080;28;20340;-48
2022/06/11 00:59:36;;;;;;;2.23;2.03;;;;;;;13.75;94.67;97213.03;5054890;28;20242;-48
2022/06/11 01:02:04;;;;;;;2.93;2.10;;;;;;;13.73;95.89;97215.00;5054741;28;20699;-48
2022/06/11 01:04:36;;;;;;;2.27;2.10;;;;;;;13.69;95.39;97210.97;5055814;28;20227;-48
2022/06/11 01:07:11;;;;;;;3.93;2.40;;;;;;;13.72;94.02;97218.66;5054139;28;20288;-49
2022/06/11 01:09:46;;;;;;;3.30;2.00;;;;;;;13.70;94.62;97219.78;5054087;28;20294;-49
2022/06/11 01:12:23;;;;;;;3.50;2.57;;;;;;;13.63;96.36;97216.06;5054358;28;20203;-49
2022/06/11 01:14:55;;;;;;;2.57;2.20;;;;;;;13.59;96.02;97222.63;5054765;28;20202;-49
2022/06/11 01:17:30;;;;;;;2.13;2.03;;;;;;;13.56;96.97;97223.78;5054969;28;20219;-48
2022/06/11 01:20:14;;;;;;;4.43;2.40;;;;;;;13.56;95.64;97220.28;5054348;28;20204;-49
2022/06/11 01:23:15;;;;;;;2.97;1.90;;;;;;;13.54;96.58;97225.72;5054492;28;20221;-49
2022/06/11 01:25:54;;;;;;;2.33;2.10;;;;;;;13.57;96.20;97209.50;5031721;28;20299;-49
2022/06/11 01:28:36;;;;;;;2.57;2.07;;;;;;;13.56;95.76;97217.63;5055622;28;20202;-48
2022/06/11 01:31:07;;;;;;;2.57;2.03;;;;;;;13.49;96.46;97220.03;5056118;28;20289;-48
2022/06/11 01:33:38;;;;;;;2.87;2.50;;;;;;;13.49;96.60;97222.69;5056126;28;20218;-48
2022/06/11 01:36:09;;;;;;;2.57;2.37;;;;;;;13.38;96.16;97210.44;5056242;28;20290;-49
2022/06/11 01:38:39;;;;;;;2.93;2.40;;;;;;;13.39;96.89;97217.41;5055348;28;20290;-48
2022/06/11 01:41:26;;;;;;;3.30;2.27;;;;;;;13.42;96.92;97211.81;5055370;28;20282;-48
2022/06/11 01:43:56;;;;;;;3.77;2.77;;;;;;;13.42;95.52;97213.63;5054282;28;20242;-49
2022/06/11 01:46:26;;;;;;;2.70;2.50;;;;;;;13.39;96.38;97216.59;5054639;28;20628;-48
2022/06/11 01:48:57;;;;;;;3.83;2.60;;;;;;;13.36;98.38;97219.53;5054263;28;20293;-48
2022/06/11 01:51:34;;;;;;;3.50;2.50;;;;;;;13.35;96.52;97220.53;5054504;28;20211;-48
2022/06/11 01:54:21;;;;;;;3.83;2.50;;;;;;;13.31;96.64;97219.97;5054141;28;20198;-48
2022/06/11 01:57:02;;;;;;;4.50;2.60;;;;;;;13.33;97.20;97217.16;5047311;28;20207;-49
2022/06/11 01:59:45;;;;;;;3.30;2.90;;;;;;;13.22;98.21;97215.53;5057777;28;20203;-47
2022/06/11 02:02:23;;;;;;;3.30;2.60;;;;;;;13.25;98.36;97227.69;5077837;28;20195;-48
2022/06/11 02:04:57;;;;;;;4.37;2.67;;;;;;;13.24;99.44;97221.53;5066710;28;20294;-48
2022/06/11 02:07:31;;;;;;;3.87;2.67;;;;;;;13.23;99.41;97229.63;5050973;28;20218;-50
2022/06/11 02:10:04;;;;;;;3.67;2.90;;;;;;;13.20;98.59;97219.31;5057967;28;20670;-48
2022/06/11 02:12:37;;;;;;;2.70;2.50;;;;;;;13.15;98.84;97224.22;5058018;28;20634;-49
2022/06/11 02:15:08;;;;;;;3.63;2.70;;;;;;;13.11;99.56;97228.16;5057171;28;20253;-48
2022/06/11 02:17:39;;;;;;;3.97;2.80;;;;;;;13.09;100.00;97232.72;5058351;28;20207;-48
2022/06/11 02:20:10;;;;;;;4.83;2.60;;;;;;;13.08;100.00;97239.84;5057916;28;20259;-47
2022/06/11 02:22:42;;;;;;;2.90;2.67;;;;;;;13.05;99.78;97229.53;5058107;28;20211;-47
2022/06/11 02:25:14;;;;;;;4.47;3.23;;;;;;;13.04;100.00;97230.50;5057419;28;20302;-48
2022/06/11 02:27:41;;;;;;;3.17;2.87;;;;;;;13.04;100.00;97237.66;5057726;28;20207;-49
2022/06/11 02:30:14;;;;;;;4.17;2.90;;;;;;;13.01;100.00;97240.56;5058372;28;20603;-48
2022/06/11 02:32:42;;;;;;;2.60;2.40;;;;;;;12.96;100.00;97241.84;5058062;28;20274;-48
2022/06/11 02:35:11;;;;;;;3.80;2.70;;;;;;;12.96;100.00;97241.03;5057790;28;20298;-49
2022/06/11 02:37:41;;;;;;;3.50;2.47;;;;;;;13.00;99.33;97244.22;5057241;28;20302;-49
2022/06/11 02:40:12;;;;;;;3.53;2.80;;;;;;;13.04;98.72;97240.31;5056498;28;20207;-48
2022/06/11 02:42:41;;;;;;;3.10;2.73;;;;;;;12.96;99.81;97247.16;5048932;28;20395;-48
2022/06/11 02:45:10;;;;;;;5.33;2.80;;;;;;;12.89;100.00;97235.41;5076770;28;20248;-48
2022/06/11 02:47:38;;;;;;;2.90;2.63;;;;;;;12.86;100.00;97246.31;5058781;28;20203;-48
2022/06/11 02:50:07;;;;;;;3.30;2.77;;;;;;;12.86;100.00;97235.72;5057787;28;20199;-49
2022/06/11 02:52:34;;;;;;;3.00;2.80;;;;;;;12.87;100.00;97240.03;5057237;28;20218;-49
2022/06/11 02:55:02;;;;;;;3.33;3.03;;;;;;;12.86;100.00;97238.34;5056111;28;20207;-49
2022/06/11 02:57:31;;;;;;;3.13;2.90;;;;;;;12.84;100.00;97237.69;5059318;28;20211;-49
2022/06/11 02:59:58;;;;;;;3.37;2.73;;;;;;;12.88;100.00;97244.38;5058380;28;20207;-48
2022/06/11 03:02:25;;;;;;;5.30;3.00;;;;;;;12.86;100.00;97246.31;5064701;28;20297;-48
2022/06/11 03:04:54;;;;;;;3.00;2.77;;;;;;;12.80;100.00;97246.91;5067407;28;20219;-48
2022/06/11 03:07:23;;;;;;;3.40;3.10;;;;;;;12.79;100.00;97253.19;5044871;28;20305;-48
2022/06/11 03:09:50;;;;;;;3.03;2.73;;;;;;;12.77;100.00;97243.69;5057024;28;20290;-49
2022/06/11 03:12:17;;;;;;;3.30;3.00;;;;;;;12.78;100.00;97243.56;5056764;28;20249;-48
2022/06/11 03:14:47;;;;;;;4.87;2.90;;;;;;;12.78;100.00;97246.22;5055464;28;20203;-49
2022/06/11 03:17:16;;;;;;;4.03;2.73;;;;;;;12.78;100.00;97246.22;5056202;28;20199;-49
2022/06/11 03:19:45;;;;;;;2.90;2.57;;;;;;;12.73;100.00;97248.44;5058207;28;20218;-48
2022/06/11 03:22:12;;;;;;;3.00;2.63;;;;;;;12.70;100.00;97259.34;5076627;28;20222;-48
2022/06/11 03:24:40;;;;;;;3.03;2.37;;;;;;;12.69;100.00;97265.63;5073327;28;20321;-49
2022/06/11 03:27:07;;;;;;;3.13;2.50;;;;;;;12.66;100.00;97265.91;5058452;28;20684;-49
2022/06/11 03:29:36;;;;;;;2.47;2.27;;;;;;;12.66;100.00;97267.72;5057396;28;20214;-48
2022/06/11 03:32:03;;;;;;;2.83;2.60;;;;;;;12.66;100.00;97257.13;5057077;28;20280;-49
2022/06/11 03:34:30;;;;;;;2.50;2.30;;;;;;;12.65;100.00;97263.38;5057381;28;20301;-48
2022/06/11 03:36:58;;;;;;;2.40;2.30;;;;;;;12.62;100.00;97266.31;5055868;28;20599;-48
2022/06/11 03:39:25;;;;;;;2.33;2.13;;;;;;;12.62;100.00;97266.31;5056254;28;20207;-49
2022/06/11 03:41:55;;;;;;;2.80;2.40;;;;;;;12.63;100.00;97275.97;5056348;28;20221;-49
2022/06/11 03:44:22;;;;;;;3.17;2.70;;;;;;;12.62;100.00;97268.97;5055356;28;20616;-48
2022/06/11 03:46:49;;;;;;;2.63;2.13;;;;;;;12.67;100.00;97261.44;5056140;28;20207;-49
2022/06/11 03:49:17;;;;;;;3.43;2.40;;;;;;;12.70;100.00;97267.31;5055938;28;20293;-49
2022/06/11 03:51:44;;;;;;;4.03;2.50;;;;;;;12.75;100.00;97269.56;5056309;28;20302;-48
2022/06/11 03:54:11;;;;;;;2.67;2.47;;;;;;;12.72;100.00;97280.41;5056893;28;20221;-48
2022/06/11 03:56:39;;;;;;;2.80;2.50;;;;;;;12.71;100.00;97271.66;5057446;28;20294;-47
2022/06/11 03:59:08;;;;;;;5.07;2.70;;;;;;;12.73;100.00;97277.63;5070131;28;20298;-49
2022/06/11 04:01:35;;;;;;;2.80;2.60;;;;;;;12.73;100.00;97277.63;5056500;28;20290;-48
2022/06/11 04:04:05;;;;;;;3.13;2.43;;;;;;;12.76;100.00;97281.81;5057192;28;20209;-48
2022/06/11 04:06:34;;;;;;;4.57;2.73;;;;;;;12.79;100.00;97277.06;5057598;28;20211;-48
2022/06/11 04:09:01;;;;;;;3.50;2.40;;;;;;;12.89;100.00;97282.38;5057400;28;20310;-48
2022/06/11 04:11:28;;;;;;;2.90;2.70;;;;;;;12.91;100.00;97283.91;5058177;28;20302;-49
2022/06/11 04:13:55;;;;;;;5.20;2.70;;;;;;;13.10;100.00;97285.75;5058051;28;20211;-48
2022/06/11 04:16:27;;;;;;;2.93;2.73;;;;;;;13.39;100.00;97280.34;5060276;28;20298;-48
2022/06/11 04:18:55;;;;;;;4.30;2.70;;;;;;;13.62;100.00;97279.00;5067155;28;20207;-49
2022/06/11 04:21:22;;;;;;;4.87;2.97;;;;;;;13.87;98.19;97278.31;5094272;28;20187;-49
2022/06/11 04:23:53;;;;;;;2.73;2.50;;;;;;;14.22;96.03;97279.38;5097496;28;20190;-49
2022/06/11 04:26:25;;;;;;;3.67;2.23;;;;;;;14.38;95.26;97290.22;5078336;28;20221;-49
2022/06/11 04:28:55;;;;;;;2.70;2.50;;;;;;;14.61;94.05;97286.13;5062529;28;20212;-48
2022/06/11 04:31:26;;;;;;;2.70;2.50;;;;;;;14.97;92.13;97286.09;5058321;28;20172;-49
2022/06/11 04:33:53;;;;;;;3.50;2.93;;;;;;;15.10;90.48;97281.19;5064105;28;20207;-49
2022/06/11 04:36:23;;;;;;;4.80;3.30;;;;;;;15.21;90.08;97283.59;5094956;28;20217;-49
2022/06/11 04:38:52;;;;;;;3.20;3.00;;;;;;;15.32;89.24;97286.84;5099425;28;20193;-48
2022/06/11 04:41:19;;;;;;;4.93;3.10;;;;;;;15.22;90.21;97285.28;5099040;28;20205;-48
2022/06/11 04:43:46;;;;;;;3.97;3.00;;;;;;;15.33;89.40;97291.19;5076919;28;20568;-49
2022/06/11 04:46:13;;;;;;;3.57;3.27;;;;;;;15.49;89.27;97289.66;5074586;28;20230;-49
2022/06/11 04:48:42;;;;;;;5.27;3.20;;;;;;;15.63;89.12;97294.38;5074626;28;20202;-49
2022/06/11 04:51:10;;;;;;;3.60;3.30;;;;;;;15.60;88.38;97300.88;5040765;28;20525;-49
2022/06/11 04:53:37;;;;;;;4.80;4.27;;;;;;;15.82;87.79;97308.34;5055160;28;20580;-49
2022/06/11 04:56:05;;;;;;;4.13;3.80;;;;;;;15.84;86.65;97308.16;5074829;28;20285;-49
2022/06/11 04:58:31;;;;;;;4.10;3.70;;;;;;;15.85;85.04;97316.03;5074562;28;20203;-48
2022/06/11 05:00:58;;;;;;;4.77;3.60;;;;;;;15.64;87.38;97309.41;5074752;28;20293;-49
2022/06/11 05:03:25;;;;;;;3.83;3.53;;;;;;;15.72;85.94;97310.28;5054770;28;20242;-49
2022/06/11 05:05:54;;;;;;;3.50;3.30;;;;;;;15.61;89.18;97307.91;5054286;28;20227;-48
2022/06/11 05:08:22;;;;;;;4.00;3.60;;;;;;;15.53;90.99;97310.50;5054579;28;20207;-49
2022/06/11 05:10:48;;;;;;;4.77;3.80;;;;;;;15.51;91.09;97307.16;5054866;28;20207;-49
2022/06/11 05:13:15;;;;;;;4.87;3.70;;;;;;;15.60;91.48;97308.88;5054115;28;20309;-49
2022/06/11 05:15:45;;;;;;;3.80;3.50;;;;;;;15.75;91.12;97312.63;5054864;28;20203;-49
2022/06/11 05:18:12;;;;;;;4.30;4.00;;;;;;;15.92;89.61;97318.88;5054260;28;20302;-49
2022/06/11 05:20:42;;;;;;;5.00;3.53;;;;;;;16.11;88.08;97315.97;5055000;28;20513;-49
2022/06/11 05:23:13;;;;;;;3.90;3.60;;;;;;;16.31;88.52;97311.19;5057633;28;20242;-48
2022/06/11 05:25:42;;;;;;;6.57;3.30;;;;;;;16.67;85.09;97307.31;5063802;28;20215;-49
2022/06/11 05:28:14;;;;;;;3.95;3.60;;;;;;;16.97;84.10;97310.34;5054369;28;20239;-48
2022/06/11 05:30:42;;;;;;;3.90;3.50;;;;;;;17.06;81.78;97307.50;5054759;28;20203;-49
2022/06/11 05:33:10;;;;;;;3.40;3.20;;;;;;;17.23;83.46;97303.81;5056097;28;20225;-49
2022/06/11 05:35:36;;;;;;;3.75;3.30;;;;;;;17.54;80.57;97306.59;5058496;28;20628;-49
2022/06/11 05:38:06;;;;;;;4.53;3.25;;;;;;;17.65;79.45;97298.25;5058296;28;20329;-49
2022/06/11 05:40:38;;;;;;;3.38;3.10;;;;;;;17.85;79.42;97307.56;5058640;28;20305;-48
2022/06/11 05:43:05;;;;;;;3.80;3.08;;;;;;;18.20;78.48;97308.13;5057994;28;20210;-49
2022/06/11 05:45:36;;;;;;;3.30;3.00;;;;;;;18.27;77.52;97309.09;5058248;28;20253;-48
2022/06/11 05:48:04;;;;;;;4.90;3.30;;;;;;;18.51;76.26;97311.66;5066411;28;20206;-49
2022/06/11 05:50:32;;;;;;;4.70;3.50;;;;;;;18.69;74.71;97312.22;5078361;28;20297;-48
2022/06/11 05:53:01;;;;;;;3.38;3.05;;;;;;;18.94;76.56;97307.53;5075552;28;20232;-48
2022/06/11 05:55:30;;;;;;;3.30;3.00;;;;;;;19.14;75.22;97318.59;5056362;28;20278;-49
2022/06/11 05:58:00;;;;;;;3.90;3.17;;;;;;;19.41;73.51;97315.41;5058056;28;20202;-49
2022/06/11 06:00:28;;;;;;;4.75;3.00;;;;;;;19.62;74.67;97310.16;5058227;28;20207;-49
2022/06/11 06:02:56;;;;;;;3.40;2.78;;;;;;;19.84;73.62;97317.28;5058105;28;20544;-49
2022/06/11 06:05:26;;;;;;;3.33;3.00;;;;;;;19.75;72.64;97321.09;5057950;28;20263;-49
2022/06/11 06:07:53;;;;;;;2.90;2.70;;;;;;;20.10;73.20;97316.00;5057731;28;20290;-48
2022/06/11 06:10:20;;;;;;;2.72;2.53;;;;;;;20.19;70.69;97322.94;5057463;28;20207;-49
2022/06/11 06:12:47;;;;;;;3.30;2.60;;;;;;;20.56;70.68;97322.81;5057607;28;20656;-49
2022/06/11 06:15:19;;;;;;;3.05;2.85;;;;;;;20.68;69.18;97324.00;5057634;28;20229;-49
2022/06/11 06:17:45;;;;;;;3.45;3.00;;;;;;;20.72;69.59;97322.59;5057849;28;20282;-48
2022/06/11 06:20:15;;;;;;;3.28;2.88;;;;;;;21.08;67.03;97332.50;5057362;28;20311;-49
2022/06/11 06:22:44;;;;;;;2.85;2.65;;;;;;;20.97;67.37;97327.63;5057851;28;20293;-49
2022/06/11 06:25:14;;;;;;;3.90;2.55;;;;;;;21.10;69.39;97325.91;5056318;28;20223;-49
2022/06/11 06:27:40;;;;;;;2.70;2.50;;;;;;;21.43;68.73;97323.53;5057427;28;20203;-49
2022/06/11 06:30:08;;;;;;;3.33;2.78;;;;;;;21.64;64.39;97319.97;5057439;28;20211;-49
2022/06/11 06:32:36;;;;;;;4.80;3.10;;;;;;;21.66;64.80;97326.81;5056899;28;20315;-49
2022/06/11 06:35:04;;;;;;;2.85;2.65;;;;;;;21.64;63.77;97322.66;5057369;28;20602;-50
2022/06/11 06:37:32;;;;;;;3.28;2.35;;;;;;;21.75;65.79;97322.94;5057701;28;20287;-48
2022/06/11 06:39:59;;;;;;;3.13;2.72;;;;;;;21.72;65.12;97326.03;5057442;28;20333;-50
2022/06/11 06:42:26;;;;;;;3.30;2.72;;;;;;;22.10;65.40;97328.38;5071321;28;20218;-50
2022/06/11 06:44:52;;;;;;;3.90;2.80;;;;;;;22.32;62.47;97333.47;5067661;28;20326;-49
2022/06/11 06:47:19;;;;;;;2.70;2.50;;;;;;;22.50;63.93;97334.78;5078052;28;20320;-50
2022/06/11 06:49:47;;;;;;;3.45;3.05;;;;;;;22.89;62.14;97328.72;5057023;28;20647;-50
2022/06/11 06:52:14;;;;;;;3.20;2.90;;;;;;;22.78;61.56;97322.91;5057699;28;20211;-49
2022/06/11 06:54:41;;;;;;;4.65;2.67;;;;;;;22.90;60.68;97325.00;5056158;28;20978;-50
2022/06/11 06:57:09;;;;;;;2.95;2.70;;;;;;;22.93;60.54;97314.63;5052516;28;20268;-50
2022/06/11 06:59:36;;;;;;;2.88;2.60;;;;;;;23.16;58.49;97322.38;5057117;28;20286;-50
2022/06/11 07:02:03;;;;;;;6.00;2.80;;;;;;;23.08;59.34;97317.16;5056773;28;20605;-49
2022/06/11 07:04:30;;;;;;;3.75;2.83;;;;;;;23.33;58.74;97326.34;5056142;28;20195;-49
2022/06/11 07:06:58;;;;;;;3.58;2.72;;;;;;;23.63;57.82;97329.50;5059307;28;20237;-49
2022/06/11 07:09:25;;;;;;;3.35;2.30;;;;;;;23.41;57.44;97328.88;5077016;28;20290;-49
2022/06/11 07:11:52;;;;;;;2.80;2.55;;;;;;;23.70;55.53;97331.13;5076323;28;20527;-49
2022/06/11 07:14:18;;;;;;;2.58;2.38;;;;;;;23.67;57.28;97328.03;5072605;28;20294;-49
2022/06/11 07:16:48;;;;;;;4.43;3.03;;;;;;;23.95;55.58;97330.50;5053007;28;20711;-49
2022/06/11 07:19:20;;;;;;;3.25;2.67;;;;;;;23.97;56.13;97331.13;5056840;28;20272;-49
2022/06/11 07:21:50;;;;;;;2.97;2.53;;;;;;;24.18;54.97;97336.31;5056682;28;20203;-49
2022/06/11 07:24:20;;;;;;;3.65;2.67;;;;;;;24.21;54.41;97335.88;5056707;28;20298;-49
2022/06/11 07:26:51;;;;;;;2.45;2.25;;;;;;;24.38;54.06;97337.06;5049835;28;20298;-49
2022/06/11 07:29:22;;;;;;;5.15;2.67;;;;;;;24.48;51.20;97342.84;5049879;28;20274;-49
2022/06/11 07:31:52;;;;;;;5.05;3.03;;;;;;;24.57;53.44;97333.47;5056592;28;20294;-50
2022/06/11 07:34:20;;;;;;;5.60;2.90;;;;;;;24.92;52.25;97333.97;5053119;28;20206;-49
2022/06/11 07:36:48;;;;;;;2.58;2.38;;;;;;;24.75;51.78;97344.44;5056189;28;20281;-49
2022/06/11 07:39:15;;;;;;;6.28;2.40;;;;;;;24.89;51.03;97334.41;5056137;28;20659;-50
2022/06/11 07:41:43;;;;;;;2.50;2.30;;;;;;;25.15;54.66;97338.84;5053736;28;20204;-50
2022/06/11 07:44:10;;;;;;;2.97;2.30;;;;;;;25.05;50.12;97333.88;5055995;28;20582;-49
2022/06/11 07:46:36;;;;;;;4.03;2.65;;;;;;;24.93;50.61;97330.22;5055872;28;20235;-49
2022/06/11 07:49:03;;;;;;;3.45;2.42;;;;;;;25.33;47.70;97336.19;5056044;28;20294;-49
2022/06/11 07:51:30;;;;;;;3.03;2.30;;;;;;;25.08;50.76;97338.06;5056208;28;20262;-50
2022/06/11 07:53:56;;;;;;;2.35;2.15;;;;;;;25.05;49.40;97333.88;5054626;28;20286;-49
2022/06/11 07:56:23;;;;;;;4.60;2.22;;;;;;;25.30;50.32;97331.22;5055240;28;20302;-50
2022/06/11 07:58:52;;;;;;;3.05;2.20;;;;;;;25.25;49.67;97339.19;5056057;28;20289;-50
2022/06/11 08:01:19;;;;;;;3.38;2.42;;;;;;;25.51;49.68;97336.31;5056003;28;20294;-50
2022/06/11 08:03:46;;;;;;;2.72;2.50;;;;;;;25.45;47.08;97334.44;5056135;28;20297;-49
2022/06/11 08:06:15;;;;;;;3.95;2.70;;;;;;;25.44;49.11;97335.50;5056095;28;20761;-49
2022/06/11 08:08:41;;;;;;;2.50;2.30;;;;;;;25.80;50.21;97333.97;5072127;28;20266;-50
2022/06/11 08:11:08;;;;;;;8.48;2.35;;;;;;;25.97;48.72;97321.53;5075235;28;20210;-49
2022/06/11 08:13:35;;;;;;;3.22;2.42;;;;;;;25.85;47.62;97328.75;5075924;28;20314;-50
2022/06/11 08:16:04;;;;;;;2.45;2.13;;;;;;;26.19;49.78;97326.31;5066667;28;20290;-50
2022/06/11 08:18:34;;;;;;;3.42;2.20;;;;;;;26.02;47.17;97322.53;5054713;28;20295;-49
2022/06/11 08:21:01;;;;;;;2.53;2.10;;;;;;;26.36;48.13;97323.84;5055752;28;20199;-50
2022/06/11 08:23:28;;;;;;;2.70;2.50;;;;;;;26.50;47.36;97322.63;5056305;28;20298;-49
2022/06/11 08:25:57;;;;;;;3.95;2.65;;;;;;;26.35;47.38;97319.50;5056027;28;20234;-49
2022/06/11 08:28:24;;;;;;;2.47;2.28;;;;;;;26.21;46.45;97323.41;5055104;28;20217;-50
2022/06/11 08:30:51;;;;;;;2.55;2.35;;;;;;;26.52;45.74;97320.53;5055526;28;20310;-49
2022/06/11 08:33:22;;;;;;;2.97;2.20;;;;;;;26.59;45.57;97315.03;5075129;28;20293;-50
2022/06/11 08:35:53;;;;;;;3.58;2.25;;;;;;;26.33;48.43;97310.75;5075338;28;20246;-49
2022/06/11 08:38:20;;;;;;;2.35;2.15;;;;;;;26.86;47.18;97315.53;5075473;28;20203;-49
2022/06/11 08:40:49;;;;;;;2.50;2.30;;;;;;;26.58;49.66;97313.38;5074807;28;20218;-50
2022/06/11 08:43:19;;;;;;;3.15;1.98;;;;;;;26.53;48.33;97314.06;5074888;28;20297;-49
2022/06/11 08:45:51;;;;;;;3.00;2.30;;;;;;;26.76;47.00;97304.38;5074708;28;20229;-50
2022/06/11 08:48:28;;;;;;;3.15;2.25;;;;;;;27.18;43.36;97308.81;5075055;28;20210;-49
2022/06/11 08:51:08;;;;;;;2.47;2.28;;;;;;;27.30;47.91;97306.13;5073870;28;20591;-50
2022/06/11 08:53:37;;;;;;;1.98;1.75;;;;;;;27.01;45.08;97307.81;5070148;28;20198;-50
2022/06/11 08:56:04;;;;;;;2.10;2.00;;;;;;;26.89;42.58;97304.25;5042676;28;20203;-49
2022/06/11 08:58:46;;;;;;;2.63;2.35;;;;;;;26.80;44.87;97303.69;5056755;28;20307;-53
2022/06/11 09:01:19;;;;;;;2.20;2.00;;;;;;;27.19;44.62;97305.03;5067962;28;20234;-50
2022/06/11 09:04:00;;;;;;;4.70;2.50;;;;;;;27.28;44.33;97298.22;5062492;28;20286;-49
2022/06/11 09:07:00;;;;;;;3.13;2.15;;;;;;;27.26;44.59;97302.22;5057168;28;20298;-50
2022/06/11 09:09:38;;;;;;;3.20;1.83;;;;;;;27.03;40.44;97300.28;5054823;28;20207;-49
2022/06/11 09:12:20;;;;;;;2.40;1.90;;;;;;;27.62;42.95;97294.78;5054750;28;20203;-50
2022/06/11 09:15:00;;;;;;;2.17;1.80;;;;;;;27.67;41.11;97294.88;5054396;28;20306;-49
2022/06/11 09:17:42;;;;;;;2.97;1.75;;;;;;;27.49;43.30;97303.13;5054391;28;20286;-50
2022/06/11 09:20:23;;;;;;;2.10;1.77;;;;;;;27.86;46.31;97294.78;5054400;28;20290;-50
2022/06/11 09:23:09;;;;;;;3.13;1.85;;;;;;;27.61;42.54;97287.69;5053764;28;20290;-50
2022/06/11 09:25:44;;;;;;;1.70;1.55;;;;;;;27.64;44.02;97297.25;5054790;28;20545;-50
2022/06/11 09:28:20;;;;;;;1.88;1.77;;;;;;;27.59;41.77;97300.69;5054538;28;20592;-49
2022/06/11 09:30:54;;;;;;;2.90;1.70;;;;;;;27.63;40.59;97290.97;5054761;28;20264;-51
2022/06/11 09:33:29;;;;;;;4.68;2.35;;;;;;;27.79;43.48;97297.63;5054624;28;20287;-50
2022/06/11 09:36:02;;;;;;;2.53;1.80;;;;;;;27.71;39.94;97292.53;5054010;28;20209;-48
2022/06/11 09:38:35;;;;;;;2.85;1.60;;;;;;;27.85;40.87;97290.41;5054026;28;20210;-54
2022/06/11 09:41:11;;;;;;;2.22;1.70;;;;;;;28.00;39.50;97280.72;5053149;28;20203;-52
2022/06/11 09:43:44;;;;;;;1.52;1.42;;;;;;;28.41;40.40;97292.53;5044850;28;20338;-51
2022/06/11 09:46:18;;;;;;;1.90;1.50;;;;;;;28.47;37.00;97292.38;5053365;28;20226;-53
2022/06/11 09:49:06;;;;;;;2.03;1.55;;;;;;;28.31;36.17;97293.09;5052437;28;20351;-52
2022/06/11 09:51:41;;;;;;;3.97;1.50;;;;;;;28.31;36.80;97286.84;5041568;28;20290;-52
2022/06/11 09:54:20;;;;;;;1.52;1.05;;;;;;;28.26;35.21;97290.31;5056143;28;20206;-52
2022/06/11 09:56:54;;;;;;;1.42;1.20;;;;;;;28.37;35.39;97291.34;5059906;28;20194;-52
2022/06/11 09:59:29;;;;;;;3.03;1.42;;;;;;;28.33;36.99;97288.28;5040831;28;20302;-53
2022/06/11 10:02:00;;;;;;;2.72;1.95;;;;;;;28.33;36.99;97279.28;5052922;28;20289;-51
2022/06/11 10:04:29;;;;;;;1.38;1.27;;;;;;;28.38;37.42;97282.09;5052997;28;20246;-52
2022/06/11 10:06:59;;;;;;;0.82;0.80;;;;;;;28.50;35.68;97286.47;5053120;28;20359;-52
2022/06/11 10:09:30;;;;;;;1.08;0.90;;;;;;;28.63;34.67;97279.91;5053565;28;20203;-52
2022/06/11 10:12:00;;;;;;;1.60;0.98;;;;;;;28.84;34.58;97273.00;5053143;28;20294;-52
2022/06/11 10:14:40;;;;;;;1.63;1.00;;;;;;;28.74;34.27;97276.34;5054729;28;20294;-53
2022/06/11 10:17:11;;;;;;;1.85;1.17;;;;;;;28.52;35.16;97281.59;5052299;28;20218;-52
2022/06/11 10:19:43;;;;;;;2.67;1.30;;;;;;;28.63;35.64;97272.56;5055256;28;20703;-53
2022/06/11 10:22:15;;;;;;;1.23;1.10;;;;;;;28.85;34.24;97261.84;5056587;28;20278;-52
2022/06/11 10:24:53;;;;;;;1.33;1.20;;;;;;;28.83;36.66;97264.00;5059377;28;20289;-52
2022/06/11 10:27:21;;;;;;;2.47;1.33;;;;;;;29.08;36.37;97260.94;5065797;28;20217;-52
2022/06/11 10:29:49;;;;;;;0.88;0.88;;;;;;;29.11;34.35;97271.34;5056387;28;20617;-53
2022/06/11 10:32:21;;;;;;;1.30;1.17;;;;;;;28.93;36.89;97264.19;5056596;28;20209;-51
2022/06/11 10:34:53;;;;;;;3.13;1.00;;;;;;;28.86;34.78;97262.69;5061684;28;20289;-53
2022/06/11 10:37:25;;;;;;;1.17;1.10;;;;;;;28.73;35.88;97263.00;5076281;28;20207;-52
2022/06/11 10:39:54;;;;;;;2.00;1.30;;;;;;;28.69;34.32;97264.53;5043224;28;20297;-51
2022/06/11 10:42:27;;;;;;;1.63;1.23;;;;;;;28.53;34.47;97271.53;5070975;28;20573;-52
2022/06/11 10:44:54;;;;;;;1.17;1.00;;;;;;;28.86;34.24;97268.13;5066979;28;20332;-54
2022/06/11 10:47:25;;;;;;;1.33;1.20;;;;;;;28.92;33.23;97261.72;5055869;28;20233;-52
2022/06/11 10:50:01;;;;;;;1.42;1.33;;;;;;;28.90;32.93;97259.25;5055552;28;20290;-52
2022/06/11 10:52:34;;;;;;;2.13;1.40;;;;;;;28.96;34.79;97257.44;5056126;28;20222;-54
2022/06/11 10:55:02;;;;;;;1.20;1.17;;;;;;;29.19;36.57;97264.66;5068157;28;20213;-52
2022/06/11 10:57:29;;;;;;;1.02;0.95;;;;;;;29.37;32.66;97259.81;5075208;28;20209;-54
2022/06/11 11:00:04;;;;;;;1.77;1.33;;;;;;;29.15;33.62;97262.44;5055353;28;20655;-53
2022/06/11 11:02:37;;;;;;;1.30;1.20;;;;;;;29.60;33.93;97258.84;5050708;28;20286;-53
2022/06/11 11:05:07;;;;;;;1.50;1.38;;;;;;;29.55;33.86;97256.03;5050683;28;20509;-53
2022/06/11 11:07:47;;;;;;;1.40;1.30;;;;;;;29.59;37.30;97252.56;5056029;28;20321;-52
2022/06/11 11:10:23;;;;;;;1.33;1.23;;;;;;;29.55;34.07;97245.13;5056263;28;20218;-52
2022/06/11 11:12:53;;;;;;;1.45;1.35;;;;;;;29.54;34.39;97238.88;5049836;28;20275;-53
2022/06/11 11:15:21;;;;;;;3.13;1.63;;;;;;;29.54;37.51;97238.88;5058047;28;20210;-54
2022/06/11 11:17:49;;;;;;;1.50;1.33;;;;;;;29.30;34.86;97250.19;5064659;28;20231;-53
2022/06/11 11:20:32;;;;;;;1.77;1.67;;;;;;;29.29;35.07;97248.50;5059313;28;20313;-53
2022/06/11 11:23:05;;;;;;;1.77;1.67;;;;;;;29.17;35.02;97240.38;5072387;28;20290;-53
2022/06/11 11:25:37;;;;;;;1.95;1.63;;;;;;;29.20;35.65;97248.06;5066710;28;20286;-53
2022/06/11 11:28:07;;;;;;;2.05;1.55;;;;;;;29.01;34.56;97250.19;5055903;28;20223;-53
2022/06/11 11:30:38;;;;;;;1.20;1.20;;;;;;;29.01;37.98;97238.47;5056122;28;20290;-53
2022/06/11 11:33:26;;;;;;;1.55;1.45;;;;;;;28.87;37.89;97242.56;5056716;28;20203;-53
2022/06/11 11:36:10;;;;;;;1.80;1.70;;;;;;;28.98;36.64;97238.97;5055526;28;20302;-51
2022/06/11 11:38:38;;;;;;;2.08;1.70;;;;;;;28.88;33.02;97236.03;5056678;28;20588;-54
2022/06/11 11:41:05;;;;;;;2.20;1.42;;;;;;;28.86;36.21;97232.75;5056405;28;20719;-54
2022/06/11 11:43:39;;;;;;;2.28;1.70;;;;;;;28.69;34.34;97234.59;5055945;28;20269;-54
2022/06/11 11:46:10;;;;;;;2.10;1.50;;;;;;;28.62;35.49;97230.09;5055993;28;20206;-53
2022/06/11 11:48:44;;;;;;;1.85;1.70;;;;;;;29.03;34.73;97225.41;5056224;28;20322;-54